Time;durP1;ratioP1;P1;durP2;ratioP2;P2;SDS_P1;SDS_P2;PMS_P1;PMS_P2;Temp;Humidity;BMP_temperature;BMP_pressure;BME280_temperature;BME280_humidity;BME280_pressure;Samples;Min_cycle;Max_cycle;Signal;HPM_P1;HPM_P2
2021/04/22 00:01:23;;;;;;;;;;;;;;;;;;5026387;28;794;-57
2021/04/22 00:03:49;;;;;;;;;;;;;;;;;;5025215;28;1890;-58
2021/04/22 00:06:14;;;;;;;;;;;;;;;;;;5024838;28;898;-57
2021/04/22 00:08:39;;;;;;;;;;;;;;;;;;5023518;28;819;-57
2021/04/22 00:11:05;;;;;;;;;;;;;;;;;;5025126;28;893;-58
2021/04/22 00:13:31;;;;;;;;;;;;;;;;;;5010495;28;1421;-57
2021/04/22 00:15:57;;;;;;;;;;;;;;;;;;5006226;28;858;-57
2021/04/22 00:18:22;;;;;;;;;;;;;;;;;;5004710;28;1253;-57
2021/04/22 00:20:48;;;;;;;;;;;;;;;;;;5005582;28;807;-58
2021/04/22 00:23:14;;;;;;;;;;;;;;;;;;5004729;28;1969;-58
2021/04/22 00:25:43;;;;;;;;;;;;;;;;;;5005337;28;889;-57
2021/04/22 00:28:09;;;;;;;;;;;;;;;;;;5005306;28;902;-57
2021/04/22 00:30:35;;;;;;;;;;;;;;;;;;5005538;28;831;-57
2021/04/22 00:33:03;;;;;;;;;;;;;;;;;;5005133;28;826;-57
2021/04/22 00:35:29;;;;;;;;;;;;;;;;;;5005067;28;889;-58
2021/04/22 00:37:54;;;;;;;;;;;;;;;;;;5005300;28;838;-57
2021/04/22 00:40:21;;;;;;;;;;;;;;;;;;5004352;28;874;-58
2021/04/22 00:42:48;;;;;;;;;;;;;;;;;;5004418;28;1898;-57
2021/04/22 00:45:14;;;;;;;;;;;;;;;;;;5005384;28;982;-58
2021/04/22 00:47:40;;;;;;;;;;;;;;;;;;5007205;28;815;-57
2021/04/22 00:50:06;;;;;;;;;;;;;;;;;;5005285;28;941;-57
2021/04/22 00:52:32;;;;;;;;;;;;;;;;;;5022734;28;1129;-58
2021/04/22 00:54:57;;;;;;;;;;;;;;;;;;5024856;28;877;-59
2021/04/22 00:57:23;;;;;;;;;;;;;;;;;;5025281;28;937;-57
2021/04/22 00:59:48;;;;;;;;;;;;;;;;;;5024966;28;826;-57
2021/04/22 01:02:14;;;;;;;;;;;;;;;;;;5024501;28;1964;-58
2021/04/22 01:04:40;;;;;;;;;;;;;;;;;;5024380;28;842;-57
2021/04/22 01:07:05;;;;;;;;;;;;;;;;;;5034935;28;1050;-57
2021/04/22 01:09:31;;;;;;;;;;;;;;;;;;5024187;28;869;-58
2021/04/22 01:11:58;;;;;;;;;;;;;;;;;;5019684;28;1350;-58
2021/04/22 01:14:24;;;;;;;;;;;;;;;;;;5005707;28;795;-57
2021/04/22 01:16:49;;;;;;;;;;;;;;;;;;5004615;28;810;-57
2021/04/22 01:19:15;;;;;;;;;;;;;;;;;;5004404;28;870;-57
2021/04/22 01:21:41;;;;;;;;;;;;;;;;;;5004452;28;1894;-58
2021/04/22 01:24:07;;;;;;;;;;;;;;;;;;5004574;28;877;-58
2021/04/22 01:26:33;;;;;;;;;;;;;;;;;;5004531;28;782;-58
2021/04/22 01:28:58;;;;;;;;;;;;;;;;;;5004345;28;838;-58
2021/04/22 01:31:25;;;;;;;;;;;;;;;;;;5005381;28;810;-58
2021/04/22 01:33:58;;;;;;;;;;;;;;;;;;5004675;28;877;-58
2021/04/22 01:36:23;;;;;;;;;;;;;;;;;;5003722;28;807;-58
2021/04/22 01:38:48;;;;;;;;;;;;;;;;;;5004356;28;866;-57
2021/04/22 01:41:14;;;;;;;;;;;;;;;;;;5004555;28;1503;-58
2021/04/22 01:43:39;;;;;;;;;;;;;;;;;;5003720;28;1902;-58
2021/04/22 01:46:04;;;;;;;;;;;;;;;;;;5004165;28;826;-58
2021/04/22 01:48:30;;;;;;;;;;;;;;;;;;5006801;28;826;-57
2021/04/22 01:50:56;;;;;;;;;;;;;;;;;;5009469;28;1204;-57
2021/04/22 01:53:22;;;;;;;;;;;;;;;;;;5024009;28;806;-57
2021/04/22 01:55:49;;;;;;;;;;;;;;;;;;5023356;28;890;-58
2021/04/22 01:58:19;;;;;;;;;;;;;;;;;;5023843;28;802;-58
2021/04/22 02:00:47;;;;;;;;;;;;;;;;;;5024088;28;795;-57
2021/04/22 02:03:12;;;;;;;;;;;;;;;;;;5023711;28;1972;-57
2021/04/22 02:05:39;;;;;;;;;;;;;;;;;;5023435;28;973;-57
2021/04/22 02:08:05;;;;;;;;;;;;;;;;;;5023825;28;791;-57
2021/04/22 02:10:31;;;;;;;;;;;;;;;;;;5024596;28;806;-57
2021/04/22 02:12:56;;;;;;;;;;;;;;;;;;5006820;28;1204;-57
2021/04/22 02:15:28;;;;;;;;;;;;;;;;;;5004124;28;822;-57
2021/04/22 02:17:54;;;;;;;;;;;;;;;;;;5004466;28;867;-58
2021/04/22 02:20:20;;;;;;;;;;;;;;;;;;5003525;28;965;-57
2021/04/22 02:22:46;;;;;;;;;;;;;;;;;;5003123;28;2055;-58
2021/04/22 02:25:13;;;;;;;;;;;;;;;;;;5003870;28;819;-58
2021/04/22 02:27:38;;;;;;;;;;;;;;;;;;5002958;28;887;-57
2021/04/22 02:30:08;;;;;;;;;;;;;;;;;;5003342;28;969;-57
2021/04/22 02:32:34;;;;;;;;;;;;;;;;;;5004046;28;863;-58
2021/04/22 02:34:59;;;;;;;;;;;;;;;;;;5003362;28;874;-58
2021/04/22 02:37:24;;;;;;;;;;;;;;;;;;5004524;28;815;-57
2021/04/22 02:39:50;;;;;;;;;;;;;;;;;;5003558;28;779;-58
2021/04/22 02:42:15;;;;;;;;;;;;;;;;;;5003519;28;1981;-57
2021/04/22 02:44:40;;;;;;;;;;;;;;;;;;5003244;28;889;-58
2021/04/22 02:47:06;;;;;;;;;;;;;;;;;;5004484;28;819;-58
2021/04/22 02:49:31;;;;;;;;;;;;;;;;;;5009931;28;913;-58
2021/04/22 02:51:57;;;;;;;;;;;;;;;;;;5019662;28;1094;-61
2021/04/22 02:54:22;;;;;;;;;;;;;;;;;;5026645;28;901;-58
2021/04/22 02:56:48;;;;;;;;;;;;;;;;;;5026309;28;894;-58
2021/04/22 02:59:13;;;;;;;;;;;;;;;;;;5026410;28;826;-58
2021/04/22 03:01:38;;;;;;;;;;;;;;;;;;5025190;28;1303;-58
2021/04/22 03:04:04;;;;;;;;;;;;;;;;;;5026282;28;1971;-57
2021/04/22 03:06:29;;;;;;;;;;;;;;;;;;5026223;28;929;-58
2021/04/22 03:08:55;;;;;;;;;;;;;;;;;;5028064;28;1018;-58
2021/04/22 03:11:20;;;;;;;;;;;;;;;;;;5029331;28;1258;-58
2021/04/22 03:13:45;;;;;;;;;;;;;;;;;;5005789;28;850;-58
2021/04/22 03:16:11;;;;;;;;;;;;;;;;;;5005736;28;893;-58
2021/04/22 03:18:36;;;;;;;;;;;;;;;;;;5006015;28;846;-58
2021/04/22 03:21:02;;;;;;;;;;;;;;;;;;5006483;28;831;-58
2021/04/22 03:23:27;;;;;;;;;;;;;;;;;;5005682;28;1933;-61
2021/04/22 03:25:53;;;;;;;;;;;;;;;;;;5007164;28;811;-57
2021/04/22 03:28:18;;;;;;;;;;;;;;;;;;5006762;28;882;-58
2021/04/22 03:30:43;;;;;;;;;;;;;;;;;;5006697;28;834;-58
2021/04/22 03:33:09;;;;;;;;;;;;;;;;;;5006219;28;783;-57
2021/04/22 03:35:34;;;;;;;;;;;;;;;;;;5004990;28;678;-57
2021/04/22 03:38:00;;;;;;;;;;;;;;;;;;5006629;28;838;-57
2021/04/22 03:40:25;;;;;;;;;;;;;;;;;;5006342;28;1189;-57
2021/04/22 03:42:51;;;;;;;;;;;;;;;;;;5005955;28;1902;-58
2021/04/22 03:45:17;;;;;;;;;;;;;;;;;;5006009;28;815;-57
2021/04/22 03:47:43;;;;;;;;;;;;;;;;;;5006012;28;665;-57
2021/04/22 03:50:10;;;;;;;;;;;;;;;;;;5005867;28;1320;-58
2021/04/22 03:52:36;;;;;;;;;;;;;;;;;;5021785;28;1138;-57
2021/04/22 03:55:01;;;;;;;;;;;;;;;;;;5025333;28;889;-58
2021/04/22 03:57:27;;;;;;;;;;;;;;;;;;5026631;28;850;-57
2021/04/22 03:59:52;;;;;;;;;;;;;;;;;;5024434;28;822;-58
2021/04/22 04:02:19;;;;;;;;;;;;;;;;;;5006284;28;1894;-57
2021/04/22 04:04:44;;;;;;;;;;;;;;;;;;5004075;28;861;-57
2021/04/22 04:07:10;;;;;;;;;;;;;;;;;;5005110;28;978;-58
2021/04/22 04:09:36;;;;;;;;;;;;;;;;;;5005256;28;906;-57
2021/04/22 04:12:02;;;;;;;;;;;;;;;;;;5005579;28;1395;-58
2021/04/22 04:14:27;;;;;;;;;;;;;;;;;;5006855;28;919;-57
2021/04/22 04:16:52;;;;;;;;;;;;;;;;;;5004416;28;1252;-58
2021/04/22 04:19:18;;;;;;;;;;;;;;;;;;5005208;28;878;-57
2021/04/22 04:21:43;;;;;;;;;;;;;;;;;;5006222;28;815;-57
2021/04/22 04:24:09;;;;;;;;;;;;;;;;;;5003299;28;2054;-58
2021/04/22 04:26:34;;;;;;;;;;;;;;;;;;4995940;28;946;-57
2021/04/22 04:29:00;;;;;;;;;;;;;;;;;;4991218;28;933;-58
2021/04/22 04:31:25;;;;;;;;;;;;;;;;;;4986463;28;811;-57
2021/04/22 04:33:51;;;;;;;;;;;;;;;;;;4984620;28;815;-57
2021/04/22 04:36:17;;;;;;;;;;;;;;;;;;4985643;28;910;-59
2021/04/22 04:38:42;;;;;;;;;;;;;;;;;;4984936;28;1089;-58
2021/04/22 04:41:08;;;;;;;;;;;;;;;;;;4996753;28;1269;-57
2021/04/22 04:43:33;;;;;;;;;;;;;;;;;;5004632;28;1960;-57
2021/04/22 04:45:59;;;;;;;;;;;;;;;;;;5004695;28;870;-60
2021/04/22 04:48:24;;;;;;;;;;;;;;;;;;5005626;28;807;-57
2021/04/22 04:50:49;;;;;;;;;;;;;;;;;;5008671;28;1087;-58
2021/04/22 04:53:15;;;;;;;;;;;;;;;;;;5025043;28;828;-57
2021/04/22 04:55:40;;;;;;;;;;;;;;;;;;5024247;28;912;-58
2021/04/22 04:58:06;;;;;;;;;;;;;;;;;;5024440;28;895;-57
2021/04/22 05:00:31;;;;;;;;;;;;;;;;;;5005318;28;810;-57
2021/04/22 05:02:56;;;;;;;;;;;;;;;;;;5005002;28;1902;-57
2021/04/22 05:05:22;;;;;;;;;;;;;;;;;;5004724;28;802;-58
2021/04/22 05:07:47;;;;;;;;;;;;;;;;;;5004293;28;898;-57
2021/04/22 05:10:13;;;;;;;;;;;;;;;;;;5004119;28;1359;-57
2021/04/22 05:12:38;;;;;;;;;;;;;;;;;;5004759;28;882;-58
2021/04/22 05:15:04;;;;;;;;;;;;;;;;;;5004534;28;893;-59
2021/04/22 05:17:30;;;;;;;;;;;;;;;;;;5024418;28;1139;-58
2021/04/22 05:19:55;;;;;;;;;;;;;;;;;;5108515;28;818;-58
2021/04/22 05:22:21;;;;;;;;;;;;;;;;;;5107395;28;1897;-57
2021/04/22 05:24:46;;;;;;;;;;;;;;;;;;5107777;28;814;-58
2021/04/22 05:27:11;;;;;;;;;;;;;;;;;;5107516;28;885;-58
2021/04/22 05:29:37;;;;;;;;;;;;;;;;;;5106778;28;813;-57
2021/04/22 05:32:03;;;;;;;;;;;;;;;;;;5107280;28;826;-57
2021/04/22 05:34:28;;;;;;;;;;;;;;;;;;5108009;28;1107;-60
2021/04/22 05:36:54;;;;;;;;;;;;;;;;;;5108269;28;888;-58
2021/04/22 05:39:20;;;;;;;;;;;;;;;;;;5077139;28;1252;-57
2021/04/22 05:41:45;;;;;;;;;;;;;;;;;;5004579;28;826;-58
2021/04/22 05:44:11;;;;;;;;;;;;;;;;;;5004637;28;1977;-58
2021/04/22 05:46:36;;;;;;;;;;;;;;;;;;5002453;28;764;-57
2021/04/22 05:49:02;;;;;;;;;;;;;;;;;;5003652;28;1406;-58
2021/04/22 05:51:27;;;;;;;;;;;;;;;;;;5013858;28;1149;-57
2021/04/22 05:53:53;;;;;;;;;;;;;;;;;;5023989;28;946;-58
2021/04/22 05:56:18;;;;;;;;;;;;;;;;;;5007375;28;1915;-58
2021/04/22 05:58:43;;;;;;;;;;;;;;;;;;5005077;28;1484;-59
2021/04/22 06:01:09;;;;;;;;;;;;;;;;;;5002959;28;1462;-57
2021/04/22 06:03:34;;;;;;;;;;;;;;;;;;5004210;28;1894;-57
2021/04/22 06:06:00;;;;;;;;;;;;;;;;;;5003562;28;1397;-56
2021/04/22 06:08:25;;;;;;;;;;;;;;;;;;5005005;28;807;-57
2021/04/22 06:10:50;;;;;;;;;;;;;;;;;;5004457;28;815;-57
2021/04/22 06:13:16;;;;;;;;;;;;;;;;;;5003548;28;1691;-57
2021/04/22 06:15:41;;;;;;;;;;;;;;;;;;5003845;28;854;-57
2021/04/22 06:18:08;;;;;;;;;;;;;;;;;;5003362;28;874;-58
2021/04/22 06:20:33;;;;;;;;;;;;;;;;;;5003642;28;902;-57
2021/04/22 06:22:59;;;;;;;;;;;;;;;;;;5005086;28;1914;-57
2021/04/22 06:25:24;;;;;;;;;;;;;;;;;;5006740;28;835;-57
2021/04/22 06:27:50;;;;;;;;;;;;;;;;;;5006805;28;811;-57
2021/04/22 06:30:16;;;;;;;;;;;;;;;;;;5006333;28;1627;-57
2021/04/22 06:32:41;;;;;;;;;;;;;;;;;;5006971;28;1148;-58
2021/04/22 06:35:08;;;;;;;;;;;;;;;;;;5002956;28;1544;-57
2021/04/22 06:37:34;;;;;;;;;;;;;;;;;;5075647;28;1245;-57
2021/04/22 06:39:59;;;;;;;;;;;;;;;;;;5110867;28;798;-58
2021/04/22 06:42:25;;;;;;;;;;;;;;;;;;5001372;28;2680;-59
2021/04/22 06:44:50;;;;;;;;;;;;;;;;;;5006461;28;795;-58
2021/04/22 06:47:16;;;;;;;;;;;;;;;;;;5004597;28;925;-57
2021/04/22 06:49:41;;;;;;;;;;;;;;;;;;5013857;28;1280;-58
2021/04/22 06:52:07;;;;;;;;;;;;;;;;;;5020335;28;1230;-57
2021/04/22 06:54:32;;;;;;;;;;;;;;;;;;5026203;28;682;-57
2021/04/22 06:56:58;;;;;;;;;;;;;;;;;;5027021;28;921;-58
2021/04/22 06:59:23;;;;;;;;;;;;;;;;;;5025187;28;1178;-57
2021/04/22 07:01:49;;;;;;;;;;;;;;;;;;5005950;28;1114;-58
2021/04/22 07:04:14;;;;;;;;;;;;;;;;;;5006286;28;1895;-58
2021/04/22 07:06:40;;;;;;;;;;;;;;;;;;5006779;28;834;-57
2021/04/22 07:09:05;;;;;;;;;;;;;;;;;;5006055;28;815;-58
2021/04/22 07:11:30;;;;;;;;;;;;;;;;;;5006826;28;855;-57
2021/04/22 07:13:56;;;;;;;;;;;;;;;;;;5007757;28;898;-57
2021/04/22 07:16:21;;;;;;;;;;;;;;;;;;5006716;28;795;-57
2021/04/22 07:18:47;;;;;;;;;;;;;;;;;;5003965;28;2568;-58
2021/04/22 07:21:12;;;;;;;;;;;;;;;;;;5065394;28;1057;-60
2021/04/22 07:23:38;;;;;;;;;;;;;;;;;;5026211;28;1918;-57
2021/04/22 07:26:03;;;;;;;;;;;;;;;;;;5015516;28;1288;-58
2021/04/22 07:28:29;;;;;;;;;;;;;;;;;;5006915;28;890;-59
2021/04/22 07:30:54;;;;;;;;;;;;;;;;;;5007147;28;878;-59
2021/04/22 07:33:19;;;;;;;;;;;;;;;;;;5003799;28;1784;-58
2021/04/22 07:35:45;;;;;;;;;;;;;;;;;;5006374;28;1809;-58
2021/04/22 07:38:12;;;;;;;;;;;;;;;;;;5006842;28;819;-58
2021/04/22 07:40:39;;;;;;;;;;;;;;;;;;5005842;28;1624;-58
2021/04/22 07:43:05;;;;;;;;;;;;;;;;;;5005798;28;1969;-60
2021/04/22 07:45:33;;;;;;;;;;;;;;;;;;5005894;28;925;-58
2021/04/22 07:48:00;;;;;;;;;;;;;;;;;;5005927;28;803;-58
2021/04/22 07:50:25;;;;;;;;;;;;;;;;;;4987822;28;1055;-59
2021/04/22 07:52:50;;;;;;;;;;;;;;;;;;5025859;28;831;-58
2021/04/22 07:55:18;;;;;;;;;;;;;;;;;;5026209;28;826;-57
2021/04/22 07:57:43;;;;;;;;;;;;;;;;;;5023120;28;1086;-57
2021/04/22 08:00:10;;;;;;;;;;;;;;;;;;5006360;28;1131;-58
2021/04/22 08:02:35;;;;;;;;;;;;;;;;;;5005988;28;1971;-58
2021/04/22 08:05:02;;;;;;;;;;;;;;;;;;5034549;28;1632;-58
2021/04/22 08:07:27;;;;;;;;;;;;;;;;;;5014667;28;1640;-58
2021/04/22 08:09:53;;;;;;;;;;;;;;;;;;5108077;28;842;-57
2021/04/22 08:12:18;;;;;;;;;;;;;;;;;;5108976;27;893;-57
2021/04/22 08:14:43;;;;;;;;;;;;;;;;;;5106797;28;1277;-58
2021/04/22 08:17:09;;;;;;;;;;;;;;;;;;5108045;28;802;-58
2021/04/22 08:19:34;;;;;;;;;;;;;;;;;;5108971;28;859;-57
2021/04/22 08:22:00;;;;;;;;;;;;;;;;;;5050512;28;1969;-57
2021/04/22 08:24:26;;;;;;;;;;;;;;;;;;5036656;27;1430;-58
2021/04/22 08:26:52;;;;;;;;;;;;;;;;;;5004556;28;1128;-59
2021/04/22 08:29:17;;;;;;;;;;;;;;;;;;5004426;28;1260;-60
2021/04/22 08:31:43;;;;;;;;;;;;;;;;;;5004447;28;1164;-59
2021/04/22 08:34:08;;;;;;;;;;;;;;;;;;5005205;28;1319;-59
2021/04/22 08:36:35;;;;;;;;;;;;;;;;;;5004617;28;1248;-61
2021/04/22 08:39:03;;;;;;;;;;;;;;;;;;5004415;28;1245;-60
2021/04/22 08:41:28;;;;;;;;;;;;;;;;;;5004753;28;1627;-60
2021/04/22 08:43:54;;;;;;;;;;;;;;;;;;5004275;28;1898;-58
2021/04/22 08:46:21;;;;;;;;;;;;;;;;;;5004193;28;1182;-57
2021/04/22 08:48:46;;;;;;;;;;;;;;;;;;5004671;28;1174;-59
2021/04/22 08:51:12;;;;;;;;;;;;;;;;;;5011677;28;1171;-58
2021/04/22 08:53:39;;;;;;;;;;;;;;;;;;5012213;28;1257;-60
2021/04/22 08:56:05;;;;;;;;;;;;;;;;;;5106874;28;877;-59
2021/04/22 08:58:31;;;;;;;;;;;;;;;;;;5106916;28;1190;-58
2021/04/22 09:01:17;;;;;;;;;;;;;;;;;;5005975;28;782;-58
2021/04/22 09:03:43;;;;;;;;;;;;;;;;;;4985133;28;1915;-58
2021/04/22 09:06:09;;;;;;;;;;;;;;;;;;5000992;28;1797;-57
2021/04/22 09:08:34;;;;;;;;;;;;;;;;;;5004297;28;874;-58
2021/04/22 09:11:00;;;;;;;;;;;;;;;;;;5004258;28;902;-58
2021/04/22 09:13:26;;;;;;;;;;;;;;;;;;5006938;28;1100;-59
2021/04/22 09:15:58;;;;;;;;;;;;;;;;;;5004609;28;1175;-58
2021/04/22 09:18:24;;;;;;;;;;;;;;;;;;5001797;28;1312;-58
2021/04/22 09:20:51;;;;;;;;;;;;;;;;;;5004528;28;1265;-58
2021/04/22 09:23:21;;;;;;;;;;;;;;;;;;5015596;28;1894;-60
2021/04/22 09:25:53;;;;;;;;;;;;;;;;;;5032190;28;1056;-59
2021/04/22 09:28:18;;;;;;;;;;;;;;;;;;5080519;28;1151;-58
2021/04/22 09:30:46;;;;;;;;;;;;;;;;;;5010790;28;1096;-57
2021/04/22 09:33:24;;;;;;;;;;;;;;;;;;5003819;28;863;-58
2021/04/22 09:35:50;;;;;;;;;;;;;;;;;;5003580;28;1100;-57
2021/04/22 09:38:17;;;;;;;;;;;;;;;;;;5003742;28;886;-58
2021/04/22 09:40:44;;;;;;;;;;;;;;;;;;5004113;28;1354;-58
2021/04/22 09:43:14;;;;;;;;;;;;;;;;;;5004252;28;1895;-57
2021/04/22 09:45:47;;;;;;;;;;;;;;;;;;5004619;28;835;-58
2021/04/22 09:48:13;;;;;;;;;;;;;;;;;;5004827;28;859;-57
2021/04/22 09:50:42;;;;;;;;;;;;;;;;;;5007325;28;1086;-58
2021/04/22 09:53:07;;;;;;;;;;;;;;;;;;5014539;28;1186;-58
2021/04/22 09:55:32;;;;;;;;;;;;;;;;;;5003484;28;1183;-57
2021/04/22 09:57:58;;;;;;;;;;;;;;;;;;5003669;28;885;-60
2021/04/22 10:00:28;;;;;;;;;;;;;;;;;;5004916;28;835;-57
2021/04/22 10:02:55;;;;;;;;;;;;;;;;;;5003618;28;1965;-58
2021/04/22 10:05:28;;;;;;;;;;;;;;;;;;5004898;28;1632;-58
2021/04/22 10:08:06;;;;;;;;;;;;;;;;;;5004285;28;1470;-58
2021/04/22 10:10:31;;;;;;;;;;;;;;;;;;4994816;28;1106;-57
2021/04/22 10:13:00;;;;;;;;;;;;;;;;;;5004928;28;1103;-59
2021/04/22 10:15:26;;;;;;;;;;;;;;;;;;5004566;28;1095;-58
2021/04/22 10:17:52;;;;;;;;;;;;;;;;;;5003270;28;1338;-58
2021/04/22 10:20:18;;;;;;;;;;;;;;;;;;5004008;28;831;-57
2021/04/22 10:22:44;;;;;;;;;;;;;;;;;;5004377;28;1965;-57
2021/04/22 10:25:11;;;;;;;;;;;;;;;;;;5004338;28;807;-57
2021/04/22 10:27:37;;;;;;;;;;;;;;;;;;5003472;28;873;-57
2021/04/22 10:30:05;;;;;;;;;;;;;;;;;;5003716;28;803;-57
2021/04/22 10:32:30;;;;;;;;;;;;;;;;;;5003393;28;1130;-57
2021/04/22 10:34:56;;;;;;;;;;;;;;;;;;5004578;28;882;-60
2021/04/22 10:37:22;;;;;;;;;;;;;;;;;;5003231;28;826;-57
2021/04/22 10:39:47;;;;;;;;;;;;;;;;;;5003622;28;898;-57
2021/04/22 10:42:15;;;;;;;;;;;;;;;;;;5003836;28;1973;-57
2021/04/22 10:44:41;;;;;;;;;;;;;;;;;;5002982;28;889;-60
2021/04/22 10:47:06;;;;;;;;;;;;;;;;;;5002877;28;1052;-58
2021/04/22 10:49:32;;;;;;;;;;;;;;;;;;5002734;28;1214;-58
2021/04/22 10:51:59;;;;;;;;;;;;;;;;;;5003824;28;1007;-58
2021/04/22 10:54:25;;;;;;;;;;;;;;;;;;5008530;28;1210;-59
2021/04/22 10:57:00;;;;;;;;;;;;;;;;;;5002563;28;1164;-59
2021/04/22 10:59:26;;;;;;;;;;;;;;;;;;5060092;28;1435;-58
2021/04/22 11:01:52;;;;;;;;;;;;;;;;;;5004982;28;1206;-58
2021/04/22 11:04:18;;;;;;;;;;;;;;;;;;5005478;28;1894;-59
2021/04/22 11:06:44;;;;;;;;;;;;;;;;;;5022893;28;878;-57
2021/04/22 11:09:20;;;;;;;;;;;;;;;;;;5030653;28;1161;-58
2021/04/22 11:12:02;;;;;;;;;;;;;;;;;;5032074;28;1038;-58
2021/04/22 11:14:43;;;;;;;;;;;;;;;;;;5027098;28;826;-59
2021/04/22 11:17:08;;;;;;;;;;;;;;;;;;5024243;28;1240;-58
2021/04/22 11:19:36;;;;;;;;;;;;;;;;;;5020899;28;1294;-58
2021/04/22 11:22:25;;;;;;;;;;;;;;;;;;5006387;28;846;-58
2021/04/22 11:24:51;;;;;;;;;;;;;;;;;;5011603;28;1428;-59
2021/04/22 11:27:17;;;;;;;;;;;;;;;;;;5005806;28;846;-58
2021/04/22 11:29:47;;;;;;;;;;;;;;;;;;5005202;28;796;-59
2021/04/22 11:32:21;;;;;;;;;;;;;;;;;;5006641;28;859;-58
2021/04/22 11:34:47;;;;;;;;;;;;;;;;;;5005960;28;815;-57
2021/04/22 11:37:14;;;;;;;;;;;;;;;;;;5006126;28;1823;-57
2021/04/22 11:39:40;;;;;;;;;;;;;;;;;;5001996;28;1469;-58
2021/04/22 11:42:05;;;;;;;;;;;;;;;;;;4998594;28;1488;-58
2021/04/22 11:44:31;;;;;;;;;;;;;;;;;;5002279;28;1158;-58
2021/04/22 11:46:56;;;;;;;;;;;;;;;;;;5006071;28;909;-58
2021/04/22 11:49:29;;;;;;;;;;;;;;;;;;5005574;28;838;-58
2021/04/22 11:51:55;;;;;;;;;;;;;;;;;;5016298;28;1114;-57
2021/04/22 11:54:22;;;;;;;;;;;;;;;;;;5006162;28;823;-58
2021/04/22 11:56:57;;;;;;;;;;;;;;;;;;5005899;28;847;-57
2021/04/22 11:59:22;;;;;;;;;;;;;;;;;;5005690;28;954;-58
2021/04/22 12:01:53;;;;;;;;;;;;;;;;;;5005918;28;831;-58
2021/04/22 12:04:19;;;;;;;;;;;;;;;;;;5005466;28;1985;-58
2021/04/22 12:06:48;;;;;;;;;;;;;;;;;;5005805;28;894;-57
2021/04/22 12:09:24;;;;;;;;;;;;;;;;;;5005638;28;1347;-58
2021/04/22 12:11:50;;;;;;;;;;;;;;;;;;5006203;28;779;-58
2021/04/22 12:14:25;;;;;;;;;;;;;;;;;;5006172;28;926;-58
2021/04/22 12:16:51;;;;;;;;;;;;;;;;;;5005896;28;795;-57
2021/04/22 12:19:22;;;;;;;;;;;;;;;;;;5005134;28;826;-58
2021/04/22 12:21:47;;;;;;;;;;;;;;;;;;5005995;28;858;-57
2021/04/22 12:24:13;;;;;;;;;;;;;;;;;;5005712;28;1898;-57
2021/04/22 12:26:38;;;;;;;;;;;;;;;;;;5005613;28;867;-58
2021/04/22 12:29:13;;;;;;;;;;;;;;;;;;4995657;28;810;-58
2021/04/22 12:31:39;;;;;;;;;;;;;;;;;;4986205;28;787;-58
2021/04/22 12:34:15;;;;;;;;;;;;;;;;;;4986156;28;835;-58
2021/04/22 12:37:10;;;;;;;;;;;;;;;;;;4986027;28;811;-59
2021/04/22 12:39:46;;;;;;;;;;;;;;;;;;4976997;28;1421;-59
2021/04/22 12:42:18;;;;;;;;;;;;;;;;;;4986045;28;1977;-58
2021/04/22 12:44:52;;;;;;;;;;;;;;;;;;4985407;28;894;-59
2021/04/22 12:47:18;;;;;;;;;;;;;;;;;;4985805;28;818;-58
2021/04/22 12:49:50;;;;;;;;;;;;;;;;;;4985582;28;1024;-58
2021/04/22 12:52:20;;;;;;;;;;;;;;;;;;5016555;28;1142;-58
2021/04/22 12:54:45;;;;;;;;;;;;;;;;;;5024982;28;866;-58
2021/04/22 12:57:11;;;;;;;;;;;;;;;;;;5024729;28;846;-58
2021/04/22 12:59:44;;;;;;;;;;;;;;;;;;5024358;28;886;-57
2021/04/22 13:02:11;;;;;;;;;;;;;;;;;;5023025;28;1999;-59
2021/04/22 13:04:37;;;;;;;;;;;;;;;;;;5021354;28;1639;-58
2021/04/22 13:07:03;;;;;;;;;;;;;;;;;;5004661;28;1201;-58
2021/04/22 13:09:29;;;;;;;;;;;;;;;;;;5005077;28;881;-59
2021/04/22 13:11:54;;;;;;;;;;;;;;;;;;5006420;28;830;-58
2021/04/22 13:14:22;;;;;;;;;;;;;;;;;;5005444;28;898;-58
2021/04/22 13:16:49;;;;;;;;;;;;;;;;;;5004987;28;799;-58
2021/04/22 13:19:19;;;;;;;;;;;;;;;;;;5004932;28;803;-58
2021/04/22 13:21:49;;;;;;;;;;;;;;;;;;5005476;28;866;-58
2021/04/22 13:24:16;;;;;;;;;;;;;;;;;;5003847;28;1961;-58
2021/04/22 13:26:56;;;;;;;;;;;;;;;;;;5014588;28;1054;-58
2021/04/22 13:29:23;;;;;;;;;;;;;;;;;;5108555;28;834;-58
2021/04/22 13:31:53;;;;;;;;;;;;;;;;;;5107636;28;795;-58
2021/04/22 13:34:20;;;;;;;;;;;;;;;;;;5107774;28;868;-58
2021/04/22 13:36:47;;;;;;;;;;;;;;;;;;5089754;28;1390;-58
2021/04/22 13:39:14;;;;;;;;;;;;;;;;;;5004839;28;874;-58
2021/04/22 13:41:41;;;;;;;;;;;;;;;;;;5005041;28;873;-58
2021/04/22 13:44:10;;;;;;;;;;;;;;;;;;5004872;28;1910;-59
2021/04/22 13:46:38;;;;;;;;;;;;;;;;;;5004783;28;1363;-58
2021/04/22 13:49:11;;;;;;;;;;;;;;;;;;5004796;28;811;-57
2021/04/22 13:51:37;;;;;;;;;;;;;;;;;;5013086;28;1309;-58
2021/04/22 13:54:03;;;;;;;;;;;;;;;;;;5023620;28;879;-58
2021/04/22 13:56:29;;;;;;;;;;;;;;;;;;5024228;28;823;-59
2021/04/22 13:58:54;;;;;;;;;;;;;;;;;;5025040;28;831;-57
2021/04/22 14:01:22;;;;;;;;;;;;;;;;;;5024075;28;954;-58
2021/04/22 14:03:52;;;;;;;;;;;;;;;;;;5023836;28;1915;-58
2021/04/22 14:06:18;;;;;;;;;;;;;;;;;;5004880;28;1647;-58
2021/04/22 14:08:43;;;;;;;;;;;;;;;;;;5004108;28;1256;-58
2021/04/22 14:11:18;;;;;;;;;;;;;;;;;;5002999;28;863;-58
2021/04/22 14:13:48;;;;;;;;;;;;;;;;;;5004329;28;815;-58
2021/04/22 14:16:14;;;;;;;;;;;;;;;;;;5004452;28;807;-58
2021/04/22 14:18:43;;;;;;;;;;;;;;;;;;5003964;28;791;-58
2021/04/22 14:21:08;;;;;;;;;;;;;;;;;;5004350;28;862;-58
2021/04/22 14:23:34;;;;;;;;;;;;;;;;;;5004232;28;1889;-58
2021/04/22 14:25:59;;;;;;;;;;;;;;;;;;5003458;28;1473;-58
2021/04/22 14:28:25;;;;;;;;;;;;;;;;;;5004801;28;826;-58
2021/04/22 14:30:50;;;;;;;;;;;;;;;;;;5004041;28;838;-58
2021/04/22 14:33:16;;;;;;;;;;;;;;;;;;5003855;28;830;-58
2021/04/22 14:35:41;;;;;;;;;;;;;;;;;;5004412;28;893;-58
2021/04/22 14:38:06;;;;;;;;;;;;;;;;;;5003655;28;1395;-58
2021/04/22 14:40:32;;;;;;;;;;;;;;;;;;5003859;28;929;-58
2021/04/22 14:42:57;;;;;;;;;;;;;;;;;;4996533;28;1997;-58
2021/04/22 14:45:23;;;;;;;;;;;;;;;;;;5000481;28;1040;-58
2021/04/22 14:47:49;;;;;;;;;;;;;;;;;;4989658;28;1187;-58
2021/04/22 14:50:15;;;;;;;;;;;;;;;;;;5007386;28;1294;-58
2021/04/22 14:52:41;;;;;;;;;;;;;;;;;;5026549;28;1142;-59
2021/04/22 14:55:07;;;;;;;;;;;;;;;;;;5026753;28;890;-58
2021/04/22 14:57:32;;;;;;;;;;;;;;;;;;5026449;28;858;-59
2021/04/22 14:59:58;;;;;;;;;;;;;;;;;;5027388;28;810;-59
2021/04/22 15:02:25;;;;;;;;;;;;;;;;;;5026088;28;1988;-58
2021/04/22 15:04:50;;;;;;;;;;;;;;;;;;5026566;28;814;-58
2021/04/22 15:07:19;;;;;;;;;;;;;;;;;;5011619;28;1232;-58
2021/04/22 15:09:45;;;;;;;;;;;;;;;;;;5006446;28;850;-60
2021/04/22 15:12:10;;;;;;;;;;;;;;;;;;5007022;28;850;-57
2021/04/22 15:14:36;;;;;;;;;;;;;;;;;;5006780;28;1000;-58
2021/04/22 15:17:01;;;;;;;;;;;;;;;;;;5006909;28;862;-58
2021/04/22 15:19:27;;;;;;;;;;;;;;;;;;5007739;28;878;-58
2021/04/22 15:21:52;;;;;;;;;;;;;;;;;;5007009;28;823;-58
2021/04/22 15:24:17;;;;;;;;;;;;;;;;;;5041292;28;1890;-58
2021/04/22 15:26:43;;;;;;;;;;;;;;;;;;5109969;27;960;-59
2021/04/22 15:29:08;;;;;;;;;;;;;;;;;;5109717;28;841;-58
2021/04/22 15:31:33;;;;;;;;;;;;;;;;;;5007403;28;1467;-58
2021/04/22 15:34:01;;;;;;;;;;;;;;;;;;5004415;28;1546;-59
2021/04/22 15:36:26;;;;;;;;;;;;;;;;;;5006212;28;1101;-57
2021/04/22 15:38:51;;;;;;;;;;;;;;;;;;5005604;28;1198;-59
2021/04/22 15:41:17;;;;;;;;;;;;;;;;;;5004745;28;1158;-58
2021/04/22 15:43:42;;;;;;;;;;;;;;;;;;5005667;28;1897;-58
2021/04/22 15:46:08;;;;;;;;;;;;;;;;;;5003977;28;1674;-58
2021/04/22 15:48:33;;;;;;;;;;;;;;;;;;5005300;28;1417;-58
2021/04/22 15:51:01;;;;;;;;;;;;;;;;;;5010894;28;1105;-60
2021/04/22 15:53:27;;;;;;;;;;;;;;;;;;5031699;28;1552;-58
2021/04/22 15:55:52;;;;;;;;;;;;;;;;;;5022761;28;1167;-58
2021/04/22 15:58:18;;;;;;;;;;;;;;;;;;5004703;28;910;-58
2021/04/22 16:00:44;;;;;;;;;;;;;;;;;;5006163;28;819;-58
2021/04/22 16:03:11;;;;;;;;;;;;;;;;;;5006095;28;1895;-58
2021/04/22 16:05:36;;;;;;;;;;;;;;;;;;5006422;28;827;-58
2021/04/22 16:08:03;;;;;;;;;;;;;;;;;;5004958;28;1183;-59
2021/04/22 16:10:29;;;;;;;;;;;;;;;;;;5005871;28;1230;-59
2021/04/22 16:12:54;;;;;;;;;;;;;;;;;;5005027;28;1214;-58
2021/04/22 16:15:20;;;;;;;;;;;;;;;;;;5005548;28;1155;-58
2021/04/22 16:17:45;;;;;;;;;;;;;;;;;;5005810;28;897;-58
2021/04/22 16:20:11;;;;;;;;;;;;;;;;;;5005500;28;1694;-58
2021/04/22 16:22:38;;;;;;;;;;;;;;;;;;5005651;28;1986;-58
2021/04/22 16:25:05;;;;;;;;;;;;;;;;;;5005273;28;822;-58
2021/04/22 16:27:30;;;;;;;;;;;;;;;;;;5005526;28;1214;-57
2021/04/22 16:29:55;;;;;;;;;;;;;;;;;;5006505;28;1151;-58
2021/04/22 16:32:21;;;;;;;;;;;;;;;;;;5005878;28;890;-58
2021/04/22 16:34:47;;;;;;;;;;;;;;;;;;5002397;28;1582;-58
2021/04/22 16:37:12;;;;;;;;;;;;;;;;;;5006162;28;1173;-58
2021/04/22 16:39:38;;;;;;;;;;;;;;;;;;5009590;28;1130;-58
2021/04/22 16:42:03;;;;;;;;;;;;;;;;;;5013608;28;1283;-58
2021/04/22 16:44:29;;;;;;;;;;;;;;;;;;5015443;28;1992;-60
2021/04/22 16:46:54;;;;;;;;;;;;;;;;;;5016427;28;1347;-58
2021/04/22 16:49:20;;;;;;;;;;;;;;;;;;5004364;28;1291;-58
2021/04/22 16:51:46;;;;;;;;;;;;;;;;;;5004909;28;1248;-58
2021/04/22 16:54:11;;;;;;;;;;;;;;;;;;5009112;28;1429;-58
2021/04/22 16:56:37;;;;;;;;;;;;;;;;;;5006238;28;1147;-59
2021/04/22 16:59:07;;;;;;;;;;;;;;;;;;5015996;28;1213;-58
2021/04/22 17:01:32;;;;;;;;;;;;;;;;;;5014403;28;1084;-58
2021/04/22 17:03:58;;;;;;;;;;;;;;;;;;5042822;28;1898;-58
2021/04/22 17:06:24;;;;;;;;;;;;;;;;;;5099042;28;1248;-58
2021/04/22 17:08:49;;;;;;;;;;;;;;;;;;5085023;28;1259;-58